Time;durP1;ratioP1;P1;durP2;ratioP2;P2;SDS_P1;SDS_P2;PMS_P1;PMS_P2;Temp;Humidity;BMP_temperature;BMP_pressure;BME280_temperature;BME280_humidity;BME280_pressure;Samples;Min_cycle;Max_cycle;Signal;HPM_P1;HPM_P2
2021/11/28 00:01:18;;;;;;;117.62;57.95;;;;;;;1.34;74.98;95355.05;1819702;78;26049;-86
2021/11/28 00:03:46;;;;;;;113.70;57.33;;;;;;;1.32;75.04;95354.46;1819747;77;25613;-86
2021/11/28 00:06:21;;;;;;;110.80;56.88;;;;;;;1.31;75.08;95351.49;1819869;77;27892;-85
2021/11/28 00:11:32;;;;;;;114.45;56.50;;;;;;;1.30;75.05;95341.88;1819853;77;25776;-84
2021/11/28 00:14:09;;;;;;;113.57;58.52;;;;;;;1.28;75.08;95331.45;1776801;79;26757;-85
2021/11/28 00:16:35;;;;;;;100.90;51.42;;;;;;;1.20;75.02;95334.83;1819826;77;25660;-84
2021/11/28 00:19:04;;;;;;;103.55;53.70;;;;;;;1.12;75.03;95337.16;1819848;77;27371;-85
2021/11/28 00:21:32;;;;;;;110.32;54.63;;;;;;;1.05;75.12;95333.17;1819545;77;25950;-85
2021/11/28 00:23:59;;;;;;;101.90;52.58;;;;;;;1.00;75.25;95339.59;1819874;77;25666;-85
2021/11/28 00:26:26;;;;;;;97.62;50.38;;;;;;;0.95;75.35;95332.75;1819968;77;25997;-85
2021/11/28 00:28:53;;;;;;;106.30;50.83;;;;;;;0.97;75.48;95328.03;1819797;77;25850;-85
2021/11/28 00:31:20;;;;;;;99.28;47.75;;;;;;;0.98;75.55;95321.70;1819982;77;27399;-85
2021/11/28 00:33:46;;;;;;;92.27;45.73;;;;;;;1.00;75.62;95323.65;1819677;77;25716;-85
2021/11/28 00:36:13;;;;;;;80.35;44.48;;;;;;;1.02;75.64;95328.25;1820155;77;26341;-85
2021/11/28 00:38:40;;;;;;;92.10;48.17;;;;;;;1.05;75.69;95329.19;1820125;77;26637;-85
2021/11/28 00:41:06;;;;;;;85.45;45.15;;;;;;;1.07;75.73;95321.84;1820130;77;25935;-85
2021/11/28 00:43:33;;;;;;;86.60;45.10;;;;;;;1.08;75.77;95318.16;1820201;77;27332;-85
2021/11/28 00:46:00;;;;;;;85.42;44.35;;;;;;;1.09;75.76;95313.13;1820130;77;25461;-85
2021/11/28 00:48:29;;;;;;;88.70;47.05;;;;;;;1.09;75.74;95316.30;1820124;77;25754;-84
2021/11/28 00:51:11;;;;;;;87.95;44.67;;;;;;;1.08;75.74;95316.83;1819859;77;26179;-85
2021/11/28 00:53:23;;;;;;;81.50;43.55;;;;;;;1.08;75.73;95320.81;1816786;77;25759;-84
2021/11/28 00:55:49;;;;;;;80.40;43.20;;;;;;;1.09;75.74;95318.44;1820230;77;27407;-85
2021/11/28 00:58:16;;;;;;;80.80;42.23;;;;;;;1.08;75.74;95320.00;1820075;77;25759;-85
2021/11/28 01:00:43;;;;;;;83.17;43.48;;;;;;;1.04;75.72;95316.10;1820227;77;25890;-85
2021/11/28 01:03:09;;;;;;;75.75;41.15;;;;;;;1.04;75.83;95311.61;1820252;77;26011;-85
2021/11/28 01:05:36;;;;;;;80.65;42.10;;;;;;;1.04;75.79;95314.27;1820251;77;25681;-85
2021/11/28 01:08:03;;;;;;;81.87;40.25;;;;;;;1.05;75.83;95315.91;1820185;78;27394;-86
2021/11/28 01:10:29;;;;;;;91.75;43.50;;;;;;;1.06;75.82;95312.23;1819991;77;25764;-85
2021/11/28 01:12:56;;;;;;;84.45;43.02;;;;;;;1.08;75.82;95315.50;1820184;77;25715;-86
2021/11/28 01:15:22;;;;;;;77.85;42.78;;;;;;;1.10;75.82;95312.61;1820221;77;26047;-86
2021/11/28 01:17:49;;;;;;;82.33;41.45;;;;;;;1.06;75.75;95298.94;1820169;78;25651;-86
2021/11/28 01:20:15;;;;;;;76.25;40.55;;;;;;;1.04;75.76;95299.65;1819785;77;27408;-86
2021/11/28 01:22:42;;;;;;;78.70;42.23;;;;;;;1.05;75.80;95293.32;1820018;77;25231;-86
2021/11/28 01:25:12;;;;;;;70.35;39.45;;;;;;;1.04;75.84;95285.04;1820154;78;25756;-86
2021/11/28 01:27:41;;;;;;;69.35;39.23;;;;;;;1.02;75.92;95286.25;1820282;77;25980;-86
2021/11/28 01:30:09;;;;;;;74.82;39.38;;;;;;;0.99;75.97;95288.80;1820217;77;25751;-85
2021/11/28 01:32:37;;;;;;;77.60;40.95;;;;;;;0.98;76.06;95288.49;1820058;77;27440;-85
2021/11/28 01:35:11;;;;;;;76.20;40.70;;;;;;;1.00;76.10;95289.63;1819684;77;25870;-85
2021/11/28 01:37:39;;;;;;;74.58;39.33;;;;;;;1.01;76.11;95284.62;1819856;77;26335;-85
2021/11/28 01:40:12;;;;;;;80.77;41.02;;;;;;;1.01;76.13;95289.42;1819835;77;25998;-85
2021/11/28 01:42:47;;;;;;;79.65;40.63;;;;;;;1.01;76.15;95285.44;1819890;77;25808;-85
2021/11/28 01:45:30;;;;;;;77.42;38.92;;;;;;;1.03;76.16;95290.55;1819073;77;28424;-85
2021/11/28 01:48:00;;;;;;;73.52;37.23;;;;;;;1.05;76.18;95289.33;1819687;77;25759;-85
2021/11/28 01:50:30;;;;;;;70.62;39.13;;;;;;;1.05;76.17;95290.66;1819885;78;25661;-85
2021/11/28 01:52:57;;;;;;;66.45;34.90;;;;;;;1.06;76.21;95300.27;1819801;77;26163;-85
2021/11/28 01:55:29;;;;;;;70.45;36.70;;;;;;;1.08;76.24;95301.40;1819868;78;25769;-85
2021/11/28 01:57:57;;;;;;;70.52;37.28;;;;;;;1.08;76.14;95305.39;1819848;77;28004;-85
2021/11/28 02:00:28;;;;;;;74.42;37.40;;;;;;;1.02;76.13;95303.02;1819714;78;26480;-85
2021/11/28 02:02:58;;;;;;;75.95;39.23;;;;;;;1.00;76.16;95309.04;1819954;77;25811;-85
2021/11/28 02:05:27;;;;;;;74.17;36.80;;;;;;;1.01;76.19;95313.33;1819911;78;26053;-84
2021/11/28 02:07:53;;;;;;;72.92;37.28;;;;;;;0.96;76.18;95318.45;1819733;77;25819;-85
2021/11/28 02:10:20;;;;;;;79.17;38.58;;;;;;;0.89;76.22;95310.15;1819751;77;27433;-85
2021/11/28 02:12:48;;;;;;;71.85;37.42;;;;;;;0.85;76.33;95309.72;1819722;77;25257;-85
2021/11/28 02:15:17;;;;;;;78.62;39.33;;;;;;;0.87;76.39;95313.00;1819780;77;26016;-84
2021/11/28 02:17:49;;;;;;;71.28;36.58;;;;;;;0.87;76.38;95320.16;1819599;77;26186;-85
2021/11/28 02:20:16;;;;;;;72.32;36.88;;;;;;;0.87;76.39;95316.98;1819820;77;25957;-85
2021/11/28 02:22:43;;;;;;;77.05;37.40;;;;;;;0.86;76.41;95311.36;1819949;77;28121;-85
2021/11/28 02:25:11;;;;;;;81.57;39.73;;;;;;;0.88;76.46;95305.86;1819652;77;25763;-85
2021/11/28 02:27:38;;;;;;;73.87;38.60;;;;;;;0.84;76.44;95307.30;1819798;77;25794;-85
2021/11/28 02:30:08;;;;;;;75.83;38.92;;;;;;;0.80;76.48;95314.84;1819653;77;26109;-85
2021/11/28 02:32:36;;;;;;;74.82;39.83;;;;;;;0.76;76.50;95314.92;1819878;77;25822;-86
2021/11/28 02:35:03;;;;;;;74.85;37.58;;;;;;;0.75;76.55;95311.96;1819513;76;27464;-85
2021/11/28 02:37:30;;;;;;;70.70;37.65;;;;;;;0.73;76.58;95315.32;1819748;78;25203;-86
2021/11/28 02:39:58;;;;;;;70.05;37.35;;;;;;;0.70;76.66;95317.08;1818529;77;25885;-86
2021/11/28 02:42:25;;;;;;;73.75;37.10;;;;;;;0.70;76.74;95317.08;1819765;77;26654;-86
2021/11/28 02:44:51;;;;;;;65.67;34.98;;;;;;;0.72;76.80;95323.01;1819801;77;25705;-86
2021/11/28 02:47:21;;;;;;;68.85;36.48;;;;;;;0.67;76.82;95320.13;1819441;77;27451;-85
2021/11/28 02:49:48;;;;;;;70.85;37.65;;;;;;;0.62;76.96;95320.72;1819752;77;25732;-85
2021/11/28 02:52:15;;;;;;;73.87;39.25;;;;;;;0.59;77.09;95317.66;1819797;78;25274;-85
2021/11/28 02:54:42;;;;;;;75.15;40.65;;;;;;;0.58;77.17;95313.37;1819826;78;26332;-85
2021/11/28 02:57:10;;;;;;;78.07;41.85;;;;;;;0.64;77.27;95316.53;1819661;77;26418;-85
2021/11/28 02:59:37;;;;;;;77.45;40.90;;;;;;;0.68;77.27;95308.48;1819698;77;27270;-86
2021/11/28 03:02:06;;;;;;;71.35;36.90;;;;;;;0.70;77.24;95305.13;1805421;77;25268;-86
2021/11/28 03:04:32;;;;;;;73.95;38.13;;;;;;;0.68;77.28;95305.83;1816728;78;25270;-86
2021/11/28 03:06:59;;;;;;;72.58;39.48;;;;;;;0.69;77.31;95302.16;1819796;77;26838;-86
2021/11/28 03:09:26;;;;;;;65.65;35.68;;;;;;;0.74;77.37;95306.34;1819691;77;26302;-85
2021/11/28 03:11:52;;;;;;;77.03;39.10;;;;;;;0.78;77.34;95306.25;1824536;76;28171;-85
2021/11/28 03:14:19;;;;;;;65.08;37.03;;;;;;;0.81;77.30;95312.50;1819572;77;25705;-85
2021/11/28 03:16:45;;;;;;;73.15;36.42;;;;;;;0.80;77.15;95312.19;1819870;77;26206;-86
2021/11/28 03:19:12;;;;;;;71.70;37.58;;;;;;;0.77;77.08;95315.23;1817116;77;25927;-85
2021/11/28 03:21:41;;;;;;;72.35;38.73;;;;;;;0.72;77.07;95316.37;1819487;78;25711;-85
2021/11/28 03:24:08;;;;;;;73.17;38.05;;;;;;;0.71;77.18;95314.73;1819751;78;27442;-86
2021/11/28 03:26:39;;;;;;;75.45;39.20;;;;;;;0.72;77.24;95315.83;1819544;77;25258;-86
2021/11/28 03:29:14;;;;;;;78.50;41.17;;;;;;;0.72;77.21;95323.01;1820017;77;26349;-86
2021/11/28 03:31:45;;;;;;;82.95;40.83;;;;;;;0.75;77.24;95319.93;1818314;77;26663;-87
2021/11/28 03:34:15;;;;;;;77.77;41.20;;;;;;;0.75;77.29;95326.56;1819646;77;25692;-86
2021/11/28 03:36:48;;;;;;;77.70;40.35;;;;;;;0.78;77.35;95320.05;1819857;77;27504;-86
2021/11/28 03:39:19;;;;;;;78.92;39.92;;;;;;;0.78;77.30;95314.73;1819646;77;25724;-86
2021/11/28 03:41:50;;;;;;;78.10;39.50;;;;;;;0.71;77.31;95311.56;1819776;77;26419;-85
2021/11/28 03:44:18;;;;;;;80.42;41.75;;;;;;;0.66;77.32;95315.83;1819761;77;25982;-85
2021/11/28 03:46:45;;;;;;;76.22;39.92;;;;;;;0.62;77.43;95312.75;1819933;77;25691;-84
2021/11/28 03:49:11;;;;;;;80.60;39.23;;;;;;;0.65;77.48;95314.19;1819784;77;27387;-84
2021/11/28 03:51:38;;;;;;;77.85;40.48;;;;;;;0.67;77.47;95318.80;1819903;77;26056;-84
2021/11/28 03:54:04;;;;;;;75.25;40.38;;;;;;;0.63;77.39;95318.88;1819850;77;25746;-84
2021/11/28 03:56:31;;;;;;;76.22;39.88;;;;;;;0.58;77.40;95321.33;1819971;77;26646;-84
2021/11/28 03:58:58;;;;;;;78.10;40.60;;;;;;;0.58;77.50;95320.00;1819807;77;26408;-84
2021/11/28 04:01:24;;;;;;;77.35;39.33;;;;;;;0.62;77.49;95325.20;1819828;77;27380;-84
2021/11/28 04:03:51;;;;;;;73.17;37.73;;;;;;;0.63;77.50;95321.53;1819940;77;25697;-84
2021/11/28 04:06:19;;;;;;;66.15;37.13;;;;;;;0.65;77.51;95322.16;1820013;77;25771;-84
2021/11/28 04:08:46;;;;;;;64.82;34.48;;;;;;;0.67;77.53;95322.27;1819897;77;26776;-84
2021/11/28 04:11:12;;;;;;;65.30;35.68;;;;;;;0.70;77.55;95309.92;1820005;77;26317;-84
2021/11/28 04:13:39;;;;;;;71.42;37.38;;;;;;;0.73;77.54;95312.67;1819866;77;27855;-83
2021/11/28 04:16:05;;;;;;;69.77;35.85;;;;;;;0.72;77.51;95319.81;1819902;77;26366;-84
2021/11/28 04:18:32;;;;;;;74.22;41.15;;;;;;;0.67;77.52;95318.80;1819783;77;25798;-84
2021/11/28 04:20:59;;;;;;;57.50;32.38;;;;;;;0.66;77.64;95324.61;1819956;77;26053;-83
2021/11/28 04:23:25;;;;;;;66.62;35.25;;;;;;;0.68;77.71;95321.77;1819719;77;25790;-84
2021/11/28 04:25:52;;;;;;;57.53;32.55;;;;;;;0.70;77.73;95318.41;1819812;77;27394;-84
2021/11/28 04:28:19;;;;;;;62.90;34.67;;;;;;;0.71;77.80;95322.70;1819784;77;25684;-85
2021/11/28 04:30:45;;;;;;;74.62;41.45;;;;;;;0.74;77.80;95318.29;1819800;77;25234;-84
2021/11/28 04:33:14;;;;;;;90.12;44.90;;;;;;;0.77;77.73;95308.59;1819894;77;26200;-84
2021/11/28 04:35:41;;;;;;;107.43;55.33;;;;;;;0.78;77.71;95304.92;1819563;77;25716;-84
2021/11/28 04:38:07;;;;;;;125.90;60.33;;;;;;;0.80;77.68;95303.40;1819894;77;27473;-84
2021/11/28 04:40:34;;;;;;;134.12;62.33;;;;;;;0.80;77.64;95309.53;1819808;77;25732;-84
2021/11/28 04:43:00;;;;;;;163.60;73.30;;;;;;;0.80;77.67;95302.89;1819658;77;25777;-83
2021/11/28 04:45:27;;;;;;;128.00;59.95;;;;;;;0.79;77.73;95309.22;1819897;78;26741;-84
2021/11/28 04:47:54;;;;;;;109.12;51.25;;;;;;;0.82;77.80;95304.84;1819797;77;25282;-83
2021/11/28 04:50:21;;;;;;;111.60;51.68;;;;;;;0.85;77.78;95299.61;1819953;77;27340;-84
2021/11/28 04:52:47;;;;;;;116.67;56.77;;;;;;;0.87;77.80;95296.25;1819700;77;25629;-83
2021/11/28 04:55:15;;;;;;;114.40;57.40;;;;;;;0.87;77.71;95282.97;1819931;77;25809;-85
2021/11/28 04:57:42;;;;;;;112.37;54.93;;;;;;;0.86;77.69;95276.02;1819875;77;26800;-84
2021/11/28 05:00:20;;;;;;;102.15;51.20;;;;;;;0.85;77.64;95281.84;1819873;77;25755;-85
2021/11/28 05:02:47;;;;;;;106.75;51.13;;;;;;;0.80;77.57;95284.30;1819742;77;27356;-85
2021/11/28 05:05:14;;;;;;;101.15;51.30;;;;;;;0.77;77.65;95279.39;1819696;77;25195;-84
2021/11/28 05:07:41;;;;;;;99.42;51.68;;;;;;;0.77;77.68;95274.58;1819914;77;26342;-85
2021/11/28 05:10:10;;;;;;;112.88;54.33;;;;;;;0.73;77.62;95274.98;1828788;77;26013;-84
2021/11/28 05:12:37;;;;;;;121.10;59.35;;;;;;;0.68;77.66;95275.30;1824695;77;25629;-84
2021/11/28 05:15:05;;;;;;;112.05;53.92;;;;;;;0.70;77.79;95277.25;1819736;77;28109;-84
2021/11/28 05:17:31;;;;;;;105.03;52.70;;;;;;;0.75;77.86;95276.62;1819688;77;25672;-84
2021/11/28 05:19:58;;;;;;;100.53;51.53;;;;;;;0.76;77.86;95276.42;1819830;77;25728;-84
2021/11/28 05:22:25;;;;;;;99.32;52.08;;;;;;;0.78;77.85;95283.68;1819461;77;26043;-84
2021/11/28 05:24:52;;;;;;;109.05;53.83;;;;;;;0.75;77.80;95285.41;1819843;77;25686;-84
2021/11/28 05:27:19;;;;;;;125.07;57.78;;;;;;;0.67;77.72;95281.63;1819815;78;27398;-85
2021/11/28 05:29:46;;;;;;;128.00;61.35;;;;;;;0.64;77.79;95274.05;1819758;77;25853;-84
2021/11/28 05:32:13;;;;;;;120.70;58.38;;;;;;;0.61;77.84;95263.83;1819904;77;25783;-85
2021/11/28 05:34:40;;;;;;;118.53;58.02;;;;;;;0.57;77.83;95266.59;1818934;77;26591;-85
2021/11/28 05:37:07;;;;;;;113.20;56.53;;;;;;;0.58;77.93;95270.38;1817674;77;25352;-84
2021/11/28 05:39:33;;;;;;;106.67;51.70;;;;;;;0.58;77.94;95277.02;1817788;77;27066;-84
2021/11/28 05:42:01;;;;;;;103.47;52.85;;;;;;;0.57;77.91;95279.36;1817786;77;25775;-84
2021/11/28 05:44:28;;;;;;;91.75;50.58;;;;;;;0.57;77.96;95287.84;1817849;77;26292;-85
2021/11/28 05:46:54;;;;;;;97.85;47.33;;;;;;;0.60;77.98;95286.11;1817745;77;25966;-85
2021/11/28 05:49:22;;;;;;;91.50;48.35;;;;;;;0.59;77.90;95281.82;1817871;77;25614;-85
2021/11/28 05:51:48;;;;;;;92.75;47.60;;;;;;;0.57;77.90;95279.36;1817916;77;27543;-85
2021/11/28 05:54:15;;;;;;;104.47;48.75;;;;;;;0.58;77.92;95288.14;1817723;77;25724;-84
2021/11/28 05:56:42;;;;;;;98.00;48.78;;;;;;;0.60;77.91;95290.09;1817892;77;25773;-84
2021/11/28 05:59:08;;;;;;;94.52;47.25;;;;;;;0.59;77.92;95291.11;1817844;78;26016;-85
2021/11/28 06:01:35;;;;;;;93.80;49.55;;;;;;;0.58;77.91;95286.82;1817781;77;25802;-85
2021/11/28 06:04:01;;;;;;;84.50;44.83;;;;;;;0.53;77.84;95286.59;1817786;77;28356;-84
2021/11/28 06:06:28;;;;;;;87.82;46.90;;;;;;;0.51;77.90;95293.42;1817604;78;25294;-84
2021/11/28 06:08:55;;;;;;;80.38;44.88;;;;;;;0.52;78.00;95302.20;1817774;78;25745;-84
2021/11/28 06:11:22;;;;;;;87.72;47.30;;;;;;;0.55;78.04;95291.20;1817722;77;25965;-85
2021/11/28 06:13:48;;;;;;;90.53;49.65;;;;;;;0.56;78.04;95298.14;1817838;77;25708;-84
2021/11/28 06:16:15;;;;;;;82.42;44.77;;;;;;;0.55;77.99;95297.83;1817732;77;26823;-84
2021/11/28 06:18:41;;;;;;;82.37;42.45;;;;;;;0.54;77.98;95294.36;1817611;77;25785;-84
2021/11/28 06:21:08;;;;;;;81.50;43.68;;;;;;;0.51;78.00;95291.27;1817816;77;25720;-84
2021/11/28 06:23:34;;;;;;;71.92;41.25;;;;;;;0.51;78.05;95299.24;1817378;77;26040;-84
2021/11/28 06:26:01;;;;;;;77.27;42.83;;;;;;;0.51;78.10;95296.59;1817808;77;25711;-84
2021/11/28 06:28:28;;;;;;;76.92;44.45;;;;;;;0.53;78.20;95301.19;1817700;78;28119;-84
2021/11/28 06:30:54;;;;;;;87.53;46.05;;;;;;;0.55;78.24;95299.98;1797946;77;25689;-85
2021/11/28 06:33:21;;;;;;;90.75;46.55;;;;;;;0.59;78.31;95293.26;1815114;77;25847;-85
2021/11/28 06:35:47;;;;;;;92.70;50.52;;;;;;;0.63;78.34;95294.98;1817575;77;26746;-84
2021/11/28 06:38:14;;;;;;;101.55;51.25;;;;;;;0.62;78.36;95289.36;1817863;78;25715;-85
2021/11/28 06:40:41;;;;;;;132.85;63.02;;;;;;;0.61;78.34;95287.21;1817766;77;27374;-84
2021/11/28 06:43:08;;;;;;;162.53;73.33;;;;;;;0.61;78.39;95287.21;1817549;77;25736;-84
2021/11/28 06:45:34;;;;;;;185.50;87.45;;;;;;;0.63;78.47;95286.51;1817779;77;25276;-85
2021/11/28 06:48:01;;;;;;;177.55;85.70;;;;;;;0.67;78.51;95287.75;1817793;77;26044;-85
2021/11/28 06:50:27;;;;;;;154.35;77.53;;;;;;;0.73;78.51;95285.60;1817763;77;26358;-84
2021/11/28 06:52:54;;;;;;;150.93;72.22;;;;;;;0.76;78.49;95276.42;1817765;77;28156;-84
2021/11/28 06:55:21;;;;;;;154.87;75.92;;;;;;;0.82;78.55;95268.98;1817591;77;26504;-84
2021/11/28 06:57:47;;;;;;;151.95;71.07;;;;;;;0.86;78.49;95269.38;1817708;77;25704;-84
2021/11/28 07:00:17;;;;;;;136.37;69.67;;;;;;;0.88;78.46;95269.48;1817730;77;26047;-84
2021/11/28 07:02:43;;;;;;;132.63;61.45;;;;;;;0.92;78.50;95270.73;1817765;78;25703;-84
2021/11/28 07:05:10;;;;;;;121.25;59.35;;;;;;;0.94;78.53;95255.41;1817705;77;27395;-84
2021/11/28 07:07:36;;;;;;;117.65;57.85;;;;;;;0.91;78.51;95251.82;1817621;77;25626;-85
2021/11/28 07:10:05;;;;;;;118.65;58.60;;;;;;;0.93;78.58;95239.67;1817777;78;25714;-84
2021/11/28 07:12:31;;;;;;;118.25;57.62;;;;;;;0.99;78.70;95231.69;1817657;78;25989;-84
2021/11/28 07:14:58;;;;;;;118.62;57.85;;;;;;;1.04;78.69;95229.24;1817776;77;25677;-85
2021/11/28 07:17:24;;;;;;;125.27;62.35;;;;;;;1.00;78.65;95224.02;1817667;77;28048;-84
2021/11/28 07:19:51;;;;;;;121.07;59.18;;;;;;;0.94;78.65;95219.55;1817718;77;25293;-84
2021/11/28 07:22:18;;;;;;;124.00;60.67;;;;;;;0.92;78.69;95210.96;1817462;77;25731;-85
2021/11/28 07:24:44;;;;;;;117.28;59.03;;;;;;;0.91;78.72;95198.70;1817925;78;26643;-85
2021/11/28 07:27:11;;;;;;;123.80;60.15;;;;;;;0.90;78.75;95190.42;1817736;77;25758;-84
2021/11/28 07:29:37;;;;;;;124.25;64.15;;;;;;;0.92;78.82;95191.55;1817887;77;27401;-85
2021/11/28 07:32:04;;;;;;;121.15;60.30;;;;;;;0.94;78.91;95192.98;1817745;77;25754;-85
2021/11/28 07:34:31;;;;;;;129.15;62.13;;;;;;;0.95;78.89;95191.96;1817861;77;25641;-86
2021/11/28 07:36:58;;;;;;;137.10;67.67;;;;;;;1.02;78.91;95189.28;1817904;77;25991;-85
2021/11/28 07:39:24;;;;;;;125.07;61.68;;;;;;;1.06;78.90;95196.66;1817892;77;25696;-84
2021/11/28 07:41:51;;;;;;;117.42;61.55;;;;;;;1.13;78.87;95203.78;1818010;78;27884;-85
2021/11/28 07:44:18;;;;;;;127.40;64.62;;;;;;;1.17;78.85;95206.34;1817759;77;25630;-85
2021/11/28 07:46:44;;;;;;;122.50;61.53;;;;;;;1.18;78.76;95203.99;1817833;77;25714;-85
2021/11/28 07:49:11;;;;;;;124.00;63.48;;;;;;;1.22;78.80;95198.55;1817850;77;26024;-85
2021/11/28 07:51:38;;;;;;;122.85;61.58;;;;;;;1.27;78.81;95212.05;1817924;77;25624;-85
2021/11/28 07:54:06;;;;;;;119.40;60.83;;;;;;;1.31;78.84;95198.66;1817998;77;27510;-86
2021/11/28 07:56:34;;;;;;;113.57;60.05;;;;;;;1.32;78.80;95190.48;1817795;78;25814;-84
2021/11/28 07:59:01;;;;;;;108.45;56.68;;;;;;;1.36;78.75;95192.19;1817812;78;25726;-84
2021/11/28 08:01:27;;;;;;;103.70;56.00;;;;;;;1.39;78.72;95203.74;1817911;77;26044;-84
2021/11/28 08:03:54;;;;;;;93.90;52.65;;;;;;;1.46;78.72;95200.55;1817880;78;25779;-84
2021/11/28 08:06:20;;;;;;;93.42;52.13;;;;;;;1.51;78.64;95208.72;1817708;77;28193;-84
2021/11/28 08:08:47;;;;;;;96.80;50.40;;;;;;;1.59;78.58;95206.34;1817972;77;25859;-84
2021/11/28 08:11:14;;;;;;;99.60;52.48;;;;;;;1.63;78.45;95213.70;1816668;77;25625;-84
2021/11/28 08:13:40;;;;;;;96.45;51.92;;;;;;;1.63;78.41;95222.19;1795211;77;26006;-85
2021/11/28 08:16:07;;;;;;;106.32;54.98;;;;;;;1.65;78.39;95222.30;1817873;78;25657;-85
2021/11/28 08:18:33;;;;;;;120.50;54.98;;;;;;;1.68;78.44;95221.88;1817870;78;27395;-85
2021/11/28 08:21:00;;;;;;;90.90;49.55;;;;;;;1.67;78.37;95213.59;1817514;78;25732;-84
2021/11/28 08:23:27;;;;;;;74.35;39.55;;;;;;;1.64;78.36;95207.36;1817525;78;25702;-85
2021/11/28 08:25:53;;;;;;;73.17;38.28;;;;;;;1.62;78.35;95202.76;1817852;78;26002;-84
2021/11/28 08:28:20;;;;;;;59.53;34.65;;;;;;;1.62;78.43;95201.43;1817982;78;25645;-84
2021/11/28 08:30:47;;;;;;;61.88;35.58;;;;;;;1.63;78.47;95196.93;1817792;78;27344;-85
2021/11/28 08:33:13;;;;;;;62.58;36.40;;;;;;;1.69;78.55;95190.24;1817797;78;26419;-85
2021/11/28 08:35:41;;;;;;;61.90;34.75;;;;;;;1.76;78.59;95179.09;1818445;77;25240;-85
2021/11/28 08:38:08;;;;;;;64.12;36.90;;;;;;;1.85;78.57;95174.84;1819942;78;26529;-86
2021/11/28 08:40:37;;;;;;;74.03;40.92;;;;;;;1.91;78.54;95181.48;1819948;77;25719;-85
2021/11/28 08:43:06;;;;;;;78.75;41.42;;;;;;;2.00;78.51;95189.52;1819802;77;28109;-86
2021/11/28 08:45:34;;;;;;;100.20;49.15;;;;;;;2.08;78.51;95184.45;1819103;77;25787;-85
2021/11/28 08:48:01;;;;;;;120.17;59.70;;;;;;;2.18;78.50;95182.96;1819806;77;25886;-85
2021/11/28 08:50:28;;;;;;;109.50;56.48;;;;;;;2.29;78.40;95190.81;1819832;77;26047;-85
2021/11/28 08:52:55;;;;;;;105.52;57.70;;;;;;;2.44;78.40;95187.31;1819830;78;25700;-86
2021/11/28 08:55:21;;;;;;;103.05;55.55;;;;;;;2.68;78.44;95183.56;1819861;78;27303;-86
2021/11/28 08:57:49;;;;;;;92.70;51.65;;;;;;;2.93;78.44;95174.25;1819830;77;25780;-86
2021/11/28 09:00:17;;;;;;;88.42;48.17;;;;;;;3.17;78.32;95185.41;1819995;78;25699;-86
2021/11/28 09:02:47;;;;;;;81.53;43.35;;;;;;;3.43;78.11;95183.83;1819848;78;25980;-86
2021/11/28 09:05:13;;;;;;;69.97;36.83;;;;;;;3.62;77.75;95190.02;1819628;78;25661;-86
2021/11/28 09:07:39;;;;;;;59.05;34.40;;;;;;;3.74;77.34;95186.08;1819668;77;27319;-86
2021/11/28 09:10:06;;;;;;;61.90;36.60;;;;;;;3.85;77.17;95190.16;1819705;77;25727;-86
2021/11/28 09:12:33;;;;;;;66.85;38.85;;;;;;;3.97;76.84;95183.03;1819808;77;25680;-86
2021/11/28 09:15:00;;;;;;;62.73;36.85;;;;;;;4.12;76.76;95195.15;1819869;77;25968;-86
2021/11/28 09:17:26;;;;;;;61.35;36.68;;;;;;;4.26;76.53;95184.59;1819959;77;25732;-86
2021/11/28 09:20:06;;;;;;;65.80;38.00;;;;;;;4.34;76.00;95185.12;1819889;77;27406;-86
2021/11/28 09:24:25;;;;;;;74.05;41.05;;;;;;;4.30;75.77;95185.78;1819449;78;25531;-86
2021/11/28 09:25:02;;;;;;;90.38;51.58;;;;;;;4.38;75.91;95179.30;1792191;78;25242;-86
2021/11/28 09:27:29;;;;;;;101.72;53.58;;;;;;;4.49;75.84;95184.68;1813876;77;25978;-86
2021/11/28 09:29:56;;;;;;;105.15;56.23;;;;;;;4.57;75.48;95179.03;1803598;77;25250;-86
2021/11/28 09:32:23;;;;;;;112.15;57.98;;;;;;;4.64;75.45;95186.94;1819687;77;27465;-86
2021/11/28 09:34:50;;;;;;;119.17;61.20;;;;;;;4.73;75.34;95172.20;1819730;77;25707;-86
2021/11/28 09:37:16;;;;;;;69.50;41.30;;;;;;;4.78;75.01;95166.18;1819699;77;25906;-86
2021/11/28 09:39:45;;;;;;;83.75;44.83;;;;;;;4.86;74.88;95159.16;1820233;78;25977;-87
2021/11/28 09:42:17;;;;;;;81.50;42.88;;;;;;;4.97;74.66;95162.36;1819788;77;25742;-87
2021/11/28 09:44:43;;;;;;;79.07;42.33;;;;;;;5.17;74.50;95158.85;1819003;77;27447;-87
2021/11/28 09:47:12;;;;;;;79.53;45.73;;;;;;;5.36;74.54;95150.17;1820021;77;25736;-87
2021/11/28 09:49:42;;;;;;;60.17;35.33;;;;;;;5.56;74.01;95153.81;1820196;77;25731;-86
2021/11/28 09:52:16;;;;;;;59.15;35.23;;;;;;;5.76;73.98;95139.55;1820266;77;26029;-87
2021/11/28 09:54:45;;;;;;;57.40;34.75;;;;;;;6.15;73.92;95135.27;1819815;77;25786;-87
2021/11/28 09:57:16;;;;;;;55.28;33.20;;;;;;;6.52;73.31;95126.84;1820012;77;28235;-88
2021/11/28 09:59:45;;;;;;;50.40;29.92;;;;;;;6.53;72.11;95129.78;1819923;78;26685;-88
2021/11/28 10:02:31;;;;;;;47.05;28.30;;;;;;;6.78;72.71;95115.47;1820099;77;25856;-88
2021/11/28 10:05:02;;;;;;;38.83;24.23;;;;;;;7.00;71.87;95110.22;1820139;77;26236;-88
2021/11/28 10:07:29;;;;;;;38.73;25.00;;;;;;;7.15;71.56;95099.69;1820429;77;26022;-88
2021/11/28 10:09:56;;;;;;;40.58;24.25;;;;;;;7.28;71.31;95092.64;1820009;77;28012;-88
2021/11/28 10:12:35;;;;;;;42.03;26.17;;;;;;;7.53;71.32;95090.31;1819876;77;25794;-89
2021/11/28 10:15:06;;;;;;;35.90;23.30;;;;;;;7.84;70.95;95078.09;1797326;78;25760;-87
2021/11/28 10:17:36;;;;;;;32.67;21.90;;;;;;;8.20;70.77;95082.53;1820168;77;26879;-87
2021/11/28 10:20:08;;;;;;;36.85;22.77;;;;;;;8.59;70.19;95084.53;1820066;77;25692;-86
2021/11/28 10:22:35;;;;;;;31.02;19.92;;;;;;;8.91;70.00;95079.99;1816708;78;27505;-87
2021/11/28 10:25:16;;;;;;;32.33;21.05;;;;;;;9.15;69.21;95076.94;1819921;77;25715;-87
2021/11/28 10:27:53;;;;;;;30.62;20.32;;;;;;;9.33;68.56;95072.46;1820066;77;25660;-87
2021/11/28 10:30:30;;;;;;;31.50;20.08;;;;;;;9.53;68.33;95073.95;1820068;77;25980;-86
2021/11/28 10:33:05;;;;;;;29.00;20.15;;;;;;;9.79;68.15;95061.92;1798597;77;25665;-87
2021/11/28 10:35:32;;;;;;;28.07;20.15;;;;;;;10.15;67.57;95055.59;1810175;77;28163;-86
2021/11/28 10:38:10;;;;;;;26.68;19.92;;;;;;;10.42;66.81;95060.27;1797167;77;25678;-87
2021/11/28 10:40:41;;;;;;;26.95;18.95;;;;;;;10.63;66.50;95050.84;1819843;77;25735;-87
2021/11/28 10:43:12;;;;;;;26.75;18.55;;;;;;;10.83;65.75;95043.59;1797819;78;26743;-87
2021/11/28 10:45:49;;;;;;;26.73;19.80;;;;;;;11.16;65.99;95044.91;1820201;77;25791;-87
2021/11/28 10:48:28;;;;;;;26.77;17.55;;;;;;;11.54;65.62;95043.49;1798634;78;27983;-88
2021/11/28 10:50:55;;;;;;;23.12;16.37;;;;;;;11.84;64.75;95039.08;1819621;77;25913;-87
2021/11/28 10:53:23;;;;;;;19.75;15.00;;;;;;;11.98;64.20;95033.35;1819787;77;25217;-87
2021/11/28 10:55:59;;;;;;;14.60;10.75;;;;;;;12.10;62.88;95035.73;1819779;77;25939;-87
2021/11/28 10:58:30;;;;;;;17.00;11.00;;;;;;;12.14;63.02;95032.75;1797926;77;25787;-88
2021/11/28 11:01:05;;;;;;;16.93;11.60;;;;;;;12.22;62.84;95027.55;1819769;78;28328;-88
2021/11/28 11:03:48;;;;;;;14.47;8.88;;;;;;;12.29;61.58;95009.67;1819825;77;26052;-87
2021/11/28 11:06:24;;;;;;;14.95;10.60;;;;;;;12.10;61.40;95012.75;1819102;77;25951;-87
2021/11/28 11:08:55;;;;;;;14.00;10.08;;;;;;;11.93;61.55;95005.55;1819881;77;26059;-87
2021/11/28 11:11:24;;;;;;;14.78;9.83;;;;;;;11.79;61.21;94999.94;1815394;77;25732;-87
2021/11/28 11:14:05;;;;;;;16.25;11.00;;;;;;;11.62;61.01;94996.17;1819799;78;27369;-87
2021/11/28 11:16:39;;;;;;;15.95;10.98;;;;;;;11.50;60.89;94987.57;1819718;77;25698;-87
2021/11/28 11:19:29;;;;;;;18.20;12.53;;;;;;;11.30;61.00;94983.59;1819781;77;25797;-87
2021/11/28 11:22:18;;;;;;;17.87;11.95;;;;;;;11.21;61.14;94981.19;1751101;80;25986;-86
2021/11/28 11:24:58;;;;;;;14.80;11.03;;;;;;;11.18;61.14;94977.95;1750845;80;25874;-86
2021/11/28 11:27:33;;;;;;;17.27;12.13;;;;;;;11.09;60.84;94978.25;1750845;80;27458;-86
2021/11/28 11:30:15;;;;;;;15.05;10.95;;;;;;;11.00;61.13;94981.21;1750869;80;26672;-86